createdAt,value
2022-12-23T00:01:38.698Z,13.63
2022-12-23T00:04:05.440Z,13.07
2022-12-23T00:06:31.948Z,13.97
2022-12-23T00:08:59.098Z,12.97
2022-12-23T00:11:26.400Z,13.37
2022-12-23T00:14:16.530Z,13.27
2022-12-23T00:16:47.333Z,13.17
2022-12-23T00:19:13.835Z,12.93
2022-12-23T00:21:40.430Z,14.90
2022-12-23T00:24:07.915Z,15.37
2022-12-23T00:26:34.413Z,14.50
2022-12-23T00:29:00.929Z,15.07
2022-12-23T00:31:27.443Z,15.07
2022-12-23T00:33:54.489Z,14.33
2022-12-23T00:36:22.715Z,13.87
2022-12-23T00:39:07.996Z,14.40
2022-12-23T00:41:53.171Z,13.47
2022-12-23T00:44:19.814Z,14.67
2022-12-23T00:46:46.332Z,14.70
2022-12-23T00:49:31.711Z,16.20
2022-12-23T00:51:58.442Z,15.20
2022-12-23T00:54:25.011Z,16.93
2022-12-23T00:56:51.494Z,18.10
2022-12-23T00:59:18.277Z,17.17
2022-12-23T01:02:03.581Z,16.90
2022-12-23T01:04:48.959Z,18.73
2022-12-23T01:07:15.578Z,17.70
2022-12-23T01:09:42.077Z,18.70
2022-12-23T01:12:08.641Z,18.60
2022-12-23T01:14:35.158Z,17.93
2022-12-23T01:17:01.779Z,17.00
2022-12-23T01:19:28.509Z,17.67
2022-12-23T01:21:55.000Z,18.47
2022-12-23T01:24:21.515Z,17.23
2022-12-23T01:26:48.069Z,17.77
2022-12-23T01:29:14.514Z,18.70
2022-12-23T01:31:41.119Z,17.17
2022-12-23T01:34:07.689Z,17.80
2022-12-23T01:36:34.163Z,17.40
2022-12-23T01:39:00.721Z,19.97
2022-12-23T01:41:46.595Z,18.37
2022-12-23T01:44:32.815Z,18.60
2022-12-23T01:46:59.271Z,18.93
2022-12-23T01:49:25.766Z,18.27
2022-12-23T01:51:52.215Z,20.47
2022-12-23T01:54:18.746Z,20.80
2022-12-23T01:56:45.197Z,22.37
2022-12-23T01:59:32.702Z,21.77
2022-12-23T02:02:18.084Z,20.30
2022-12-23T02:04:44.781Z,21.53
2022-12-23T02:07:30.029Z,22.00
2022-12-23T02:09:56.554Z,21.20
2022-12-23T02:12:24.090Z,22.10
2022-12-23T02:15:12.328Z,21.73
2022-12-23T02:17:45.130Z,22.53
2022-12-23T02:20:30.100Z,23.57
2022-12-23T02:22:59.595Z,24.77
2022-12-23T02:25:44.165Z,23.07
2022-12-23T02:28:33.610Z,23.67
2022-12-23T02:31:00.182Z,26.43
2022-12-23T02:33:36.120Z,26.20
2022-12-23T02:36:21.125Z,25.43
2022-12-23T02:38:47.618Z,26.03
2022-12-23T02:41:23.252Z,26.63
2022-12-23T02:44:22.364Z,24.43
2022-12-23T02:46:52.493Z,24.73
2022-12-23T02:49:21.057Z,23.17
2022-12-23T02:51:48.990Z,23.67
2022-12-23T02:54:16.947Z,25.53
2022-12-23T02:56:43.589Z,23.53
2022-12-23T02:59:11.400Z,23.73
2022-12-23T03:01:37.948Z,22.33
2022-12-23T03:04:06.771Z,21.20
2022-12-23T03:06:35.023Z,19.00
2022-12-23T03:09:01.558Z,19.27
2022-12-23T03:11:40.184Z,19.37
2022-12-23T03:14:09.579Z,19.87
2022-12-23T03:16:42.102Z,19.20
2022-12-23T03:19:14.665Z,18.67
2022-12-23T03:21:43.244Z,17.97
2022-12-23T03:24:31.937Z,18.57
2022-12-23T03:27:03.915Z,18.50
2022-12-23T03:29:37.009Z,18.70
2022-12-23T03:32:03.525Z,17.70
2022-12-23T03:34:31.081Z,16.77
2022-12-23T03:36:58.174Z,19.03
2022-12-23T03:39:26.761Z,17.73
2022-12-23T03:41:55.222Z,17.90
2022-12-23T03:44:23.838Z,17.97
2022-12-23T03:46:55.470Z,18.30
2022-12-23T03:49:27.635Z,17.53
2022-12-23T03:51:56.247Z,18.97
2022-12-23T03:54:33.292Z,18.87
2022-12-23T03:57:01.641Z,19.37
2022-12-23T03:59:28.765Z,18.63
2022-12-23T04:02:13.747Z,19.37
2022-12-23T04:04:55.840Z,19.73
2022-12-23T04:07:23.894Z,18.70
2022-12-23T04:09:51.257Z,19.83
2022-12-23T04:12:17.723Z,20.77
2022-12-23T04:14:47.620Z,22.47
2022-12-23T04:17:14.110Z,21.17
2022-12-23T04:19:40.579Z,21.03
2022-12-23T04:22:07.079Z,21.20
2022-12-23T04:24:33.549Z,21.07
2022-12-23T04:27:00.024Z,19.43
2022-12-23T04:29:26.512Z,17.67
2022-12-23T04:31:53.057Z,17.17
2022-12-23T04:34:19.564Z,17.33
2022-12-23T04:36:46.048Z,15.63
2022-12-23T04:39:12.606Z,15.90
2022-12-23T04:41:39.162Z,16.47
2022-12-23T04:44:05.732Z,15.13
2022-12-23T04:46:32.287Z,15.70
2022-12-23T04:48:58.836Z,14.90
2022-12-23T04:51:25.285Z,14.87
2022-12-23T04:53:51.791Z,14.73
2022-12-23T04:56:18.260Z,14.00
2022-12-23T04:58:44.735Z,13.70
2022-12-23T05:01:11.536Z,13.63
2022-12-23T05:03:38.395Z,13.13
2022-12-23T05:06:05.092Z,12.40
2022-12-23T05:08:31.639Z,13.60
2022-12-23T05:10:58.166Z,12.60
2022-12-23T05:13:24.685Z,13.50
2022-12-23T05:15:51.844Z,11.97
2022-12-23T05:18:18.368Z,12.77
2022-12-23T05:20:44.841Z,12.40
2022-12-23T05:23:11.306Z,11.67
2022-12-23T05:25:37.951Z,12.13
2022-12-23T05:28:04.700Z,13.43
2022-12-23T05:30:31.238Z,13.83
2022-12-23T05:32:57.882Z,12.53
2022-12-23T05:35:24.609Z,14.20
2022-12-23T05:37:51.234Z,13.10
2022-12-23T05:40:23.296Z,12.97
2022-12-23T05:42:52.258Z,13.10
2022-12-23T05:45:18.705Z,14.40
2022-12-23T05:47:45.188Z,14.73
2022-12-23T05:50:11.758Z,14.80
2022-12-23T05:52:38.242Z,15.27
2022-12-23T05:55:05.058Z,14.73
2022-12-23T05:57:32.289Z,16.33
2022-12-23T05:59:58.916Z,15.70
2022-12-23T06:02:25.458Z,15.07
2022-12-23T06:04:52.061Z,14.47
2022-12-23T06:07:18.558Z,13.30
2022-12-23T06:09:45.067Z,14.27
2022-12-23T06:12:11.560Z,14.00
2022-12-23T06:14:38.096Z,15.00
2022-12-23T06:17:04.692Z,12.63
2022-12-23T06:19:31.210Z,12.60
2022-12-23T06:21:57.704Z,11.83
2022-12-23T06:24:24.244Z,12.80
2022-12-23T06:26:56.505Z,11.20
2022-12-23T06:29:23.636Z,10.00
2022-12-23T06:31:50.133Z,10.60
2022-12-23T06:34:16.709Z,9.80
2022-12-23T06:36:43.216Z,9.13
2022-12-23T06:39:10.175Z,10.27
2022-12-23T06:41:36.692Z,11.03
2022-12-23T06:44:03.283Z,10.37
2022-12-23T06:46:30.006Z,11.93
2022-12-23T06:48:56.526Z,11.97
2022-12-23T06:51:23.060Z,12.27
2022-12-23T06:53:49.546Z,12.57
2022-12-23T06:56:16.049Z,12.90
2022-12-23T06:58:42.532Z,12.13
2022-12-23T07:01:10.258Z,12.40
2022-12-23T07:03:36.941Z,12.73
2022-12-23T07:06:03.690Z,12.47
2022-12-23T07:08:30.171Z,12.93
2022-12-23T07:10:59.997Z,12.63
2022-12-23T07:13:26.594Z,13.03
2022-12-23T07:15:53.223Z,12.03
2022-12-23T07:18:19.764Z,11.33
2022-12-23T07:20:46.310Z,12.73
2022-12-23T07:23:12.783Z,12.13
2022-12-23T07:25:39.264Z,11.83
2022-12-23T07:28:05.769Z,12.77
2022-12-23T07:30:32.252Z,12.47
2022-12-23T07:32:58.764Z,11.97
2022-12-23T07:35:25.312Z,13.17
2022-12-23T07:37:55.597Z,16.63
2022-12-23T07:40:22.960Z,13.83
2022-12-23T07:42:50.063Z,15.73
2022-12-23T07:45:16.732Z,16.10
2022-12-23T07:47:43.258Z,15.60
2022-12-23T07:50:10.043Z,16.53
2022-12-23T07:52:36.530Z,15.97
2022-12-23T07:55:03.064Z,15.27
2022-12-23T07:57:29.669Z,16.53
2022-12-23T07:59:56.149Z,15.83
2022-12-23T08:02:25.522Z,17.27
2022-12-23T08:04:52.263Z,17.53
2022-12-23T08:07:18.807Z,16.70
2022-12-23T08:09:45.306Z,15.10
2022-12-23T08:12:12.163Z,15.27
2022-12-23T08:14:38.647Z,15.40
2022-12-23T08:17:05.361Z,16.37
2022-12-23T08:19:31.881Z,15.73
2022-12-23T08:21:58.345Z,20.53
2022-12-23T08:24:24.876Z,23.77
2022-12-23T08:26:51.358Z,26.93
2022-12-23T08:29:17.843Z,25.80
2022-12-23T08:31:44.590Z,25.30
2022-12-23T08:34:11.376Z,21.83
2022-12-23T08:36:39.984Z,16.53
2022-12-23T08:39:07.277Z,13.90
2022-12-23T08:41:35.902Z,14.07
2022-12-23T08:44:02.425Z,11.90
2022-12-23T08:46:28.971Z,13.77
2022-12-23T08:48:55.746Z,12.47
2022-12-23T08:51:22.695Z,13.27
2022-12-23T08:53:50.205Z,13.03
2022-12-23T08:56:22.680Z,13.50
2022-12-23T08:58:50.314Z,11.97
2022-12-23T09:01:17.342Z,11.97
2022-12-23T09:03:43.999Z,12.23
2022-12-23T09:06:11.372Z,14.07
2022-12-23T09:08:37.863Z,13.00
2022-12-23T09:11:04.405Z,15.63
2022-12-23T09:13:35.211Z,15.97
2022-12-23T09:16:02.577Z,15.43
2022-12-23T09:18:29.092Z,14.50
2022-12-23T09:20:59.272Z,12.93
2022-12-23T09:23:25.768Z,14.27
2022-12-23T09:25:52.229Z,14.77
2022-12-23T09:28:18.734Z,15.13
2022-12-23T09:30:45.283Z,17.00
2022-12-23T09:33:11.818Z,16.60
2022-12-23T09:35:38.314Z,16.83
2022-12-23T09:38:04.825Z,16.40
2022-12-23T09:40:32.529Z,15.13
2022-12-23T09:42:59.001Z,14.27
2022-12-23T09:45:43.890Z,14.27
2022-12-23T09:48:12.067Z,16.27
2022-12-23T09:50:38.536Z,15.17
2022-12-23T09:53:08.845Z,15.67
2022-12-23T09:55:47.239Z,14.47
2022-12-23T09:58:29.663Z,14.63
2022-12-23T10:00:59.178Z,14.13
2022-12-23T10:03:26.710Z,13.57
2022-12-23T10:06:03.411Z,13.87
2022-12-23T10:08:39.990Z,13.17
2022-12-23T10:11:15.591Z,13.43
2022-12-23T10:13:49.122Z,12.43
2022-12-23T10:16:19.661Z,11.73
2022-12-23T10:18:46.351Z,11.97
2022-12-23T10:21:25.201Z,9.73
2022-12-23T10:23:52.490Z,9.33
2022-12-23T10:26:23.839Z,8.37
2022-12-23T10:28:51.112Z,9.37
2022-12-23T10:34:07.882Z,8.77
2022-12-23T10:36:37.699Z,7.73
2022-12-23T10:39:04.216Z,8.20
2022-12-23T10:41:57.086Z,8.07
2022-12-23T10:44:36.086Z,7.23
2022-12-23T10:47:02.612Z,7.10
2022-12-23T10:49:31.956Z,7.73
2022-12-23T10:51:59.380Z,7.83
2022-12-23T10:54:32.888Z,8.23
2022-12-23T10:56:59.476Z,8.47
2022-12-23T10:59:26.873Z,8.90
2022-12-23T11:01:56.253Z,7.63
2022-12-23T11:04:25.914Z,10.30
2022-12-23T11:07:10.835Z,10.93
2022-12-23T11:09:40.096Z,10.13
2022-12-23T11:12:08.502Z,11.57
2022-12-23T11:14:42.493Z,11.00
2022-12-23T11:17:19.644Z,10.83
2022-12-23T11:19:46.123Z,10.23
2022-12-23T11:22:22.944Z,10.90
2022-12-23T11:24:49.567Z,10.83
2022-12-23T11:27:19.079Z,10.00
2022-12-23T11:29:49.663Z,10.97
2022-12-23T11:32:25.768Z,11.70
2022-12-23T11:34:52.504Z,11.87
2022-12-23T11:37:38.106Z,12.50
2022-12-23T11:40:05.098Z,12.87
2022-12-23T11:42:31.679Z,14.23
2022-12-23T11:44:58.590Z,13.73
2022-12-23T11:47:26.505Z,12.70
2022-12-23T11:49:54.066Z,13.63
2022-12-23T11:52:21.096Z,14.10
2022-12-23T11:54:54.558Z,13.33
2022-12-23T11:57:27.391Z,13.50
2022-12-23T11:59:57.566Z,15.47
2022-12-23T12:02:29.186Z,17.27
2022-12-23T12:05:14.441Z,16.73
2022-12-23T12:07:41.859Z,16.53
2022-12-23T12:10:09.857Z,16.33
2022-12-23T12:12:36.339Z,15.50
2022-12-23T12:15:03.815Z,14.73
2022-12-23T12:17:32.826Z,15.37
2022-12-23T12:20:02.432Z,13.17
2022-12-23T12:22:41.881Z,11.30
2022-12-23T12:25:14.456Z,11.67
2022-12-23T12:27:40.918Z,11.33
2022-12-23T12:30:09.034Z,9.33
2022-12-23T12:32:56.008Z,9.03
2022-12-23T12:35:25.282Z,8.40
2022-12-23T12:37:53.738Z,8.13
2022-12-23T12:40:20.184Z,8.73
2022-12-23T12:42:49.271Z,7.93
2022-12-23T12:45:45.199Z,6.93
2022-12-23T12:48:24.255Z,8.03
2022-12-23T12:51:00.125Z,7.03
2022-12-23T12:53:26.998Z,6.97
2022-12-23T12:55:56.105Z,8.27
2022-12-23T12:58:23.423Z,7.73
2022-12-23T13:01:10.180Z,7.90
2022-12-23T13:03:55.443Z,8.67
2022-12-23T13:06:37.298Z,7.97
2022-12-23T13:09:10.215Z,7.83
2022-12-23T13:12:03.020Z,7.87
2022-12-23T13:14:45.945Z,7.97
2022-12-23T13:17:35.728Z,6.93
2022-12-23T13:20:10.398Z,7.80
2022-12-23T13:22:36.886Z,7.53
2022-12-23T13:25:04.299Z,7.50
2022-12-23T13:27:33.955Z,7.20
2022-12-23T13:30:05.069Z,7.20
2022-12-23T13:32:40.824Z,6.97
2022-12-23T13:35:26.014Z,7.53
2022-12-23T13:37:52.628Z,8.50
2022-12-23T13:40:34.422Z,8.37
2022-12-23T13:43:03.412Z,6.73
2022-12-23T13:45:33.491Z,7.83
2022-12-23T13:48:09.032Z,8.33
2022-12-23T13:50:38.654Z,7.37
2022-12-23T13:53:05.141Z,7.50
2022-12-23T13:55:37.745Z,8.33
2022-12-23T13:58:17.319Z,6.90
2022-12-23T14:00:43.850Z,7.10
2022-12-23T14:03:12.512Z,7.57
2022-12-23T14:05:41.105Z,9.97
2022-12-23T14:08:20.085Z,10.23
2022-12-23T14:11:03.694Z,10.67
2022-12-23T14:13:43.569Z,10.00
2022-12-23T14:16:13.405Z,10.00
2022-12-23T14:18:46.160Z,9.63
2022-12-23T14:21:15.994Z,10.77
2022-12-23T14:24:04.218Z,10.53
2022-12-23T14:26:36.985Z,11.53
2022-12-23T14:29:12.749Z,13.03
2022-12-23T14:31:43.074Z,12.60
2022-12-23T14:34:18.774Z,12.97
2022-12-23T14:37:05.643Z,12.47
2022-12-23T14:39:32.721Z,10.93
2022-12-23T14:42:05.454Z,11.60
2022-12-23T14:44:37.187Z,11.30
2022-12-23T14:47:04.440Z,12.30
2022-12-23T14:49:41.515Z,12.63
2022-12-23T14:52:26.934Z,12.27
2022-12-23T14:55:21.024Z,11.57
2022-12-23T14:57:40.002Z,12.50
2022-12-23T15:00:06.938Z,12.73
2022-12-23T15:02:34.345Z,12.23
2022-12-23T15:05:00.857Z,12.63
2022-12-23T15:07:42.887Z,12.17
2022-12-23T15:10:20.423Z,13.30
2022-12-23T15:12:47.764Z,12.57
2022-12-23T15:15:14.301Z,13.77
2022-12-23T15:17:40.830Z,15.90
2022-12-23T15:20:11.203Z,17.67
2022-12-23T15:22:38.485Z,17.70
2022-12-23T15:25:05.442Z,17.47
2022-12-23T15:27:32.986Z,16.90
2022-12-23T15:29:59.554Z,18.27
2022-12-23T15:32:26.223Z,16.73
2022-12-23T15:34:52.891Z,17.33
2022-12-23T15:37:22.889Z,15.83
2022-12-23T15:39:54.139Z,15.47
2022-12-23T15:42:28.461Z,17.93
2022-12-23T15:44:55.109Z,17.40
2022-12-23T15:47:21.646Z,16.17
2022-12-23T15:49:48.269Z,17.03
2022-12-23T15:52:20.164Z,17.50
2022-12-23T15:55:04.390Z,17.43
2022-12-23T15:57:31.026Z,16.47
2022-12-23T15:59:57.776Z,17.43
2022-12-23T16:02:58.845Z,16.97
2022-12-23T16:05:10.871Z,16.50
2022-12-23T16:07:38.333Z,17.20
2022-12-23T16:10:10.421Z,16.30
2022-12-23T16:12:37.148Z,16.27
2022-12-23T16:15:18.986Z,16.07
2022-12-23T16:17:45.468Z,16.70
2022-12-23T16:20:21.438Z,17.50
2022-12-23T16:22:50.499Z,15.97
2022-12-23T16:25:17.028Z,17.83
2022-12-23T16:27:43.658Z,17.37
2022-12-23T16:30:20.292Z,15.37
2022-12-23T16:33:00.241Z,15.03
2022-12-23T16:35:31.711Z,16.40
2022-12-23T16:37:59.668Z,14.17
2022-12-23T16:40:26.213Z,14.83
2022-12-23T16:42:52.759Z,14.60
2022-12-23T16:45:19.318Z,14.33
2022-12-23T16:47:45.885Z,15.23
2022-12-23T16:50:12.517Z,15.10
2022-12-23T16:52:38.994Z,15.77
2022-12-23T16:55:12.143Z,15.07
2022-12-23T16:57:38.811Z,15.40
2022-12-23T17:00:05.634Z,17.00
2022-12-23T17:02:34.564Z,17.53
2022-12-23T17:05:01.155Z,17.27
2022-12-23T17:07:27.717Z,15.87
2022-12-23T17:09:54.281Z,16.17
2022-12-23T17:12:20.783Z,16.10
2022-12-23T17:14:47.312Z,17.53
2022-12-23T17:17:16.851Z,17.23
2022-12-23T17:19:43.439Z,16.07
2022-12-23T17:22:11.271Z,18.00
2022-12-23T17:24:37.820Z,17.13
2022-12-23T17:27:14.559Z,17.20
2022-12-23T17:29:41.058Z,16.93
2022-12-23T17:32:10.395Z,17.73
2022-12-23T17:34:36.965Z,17.73
2022-12-23T17:37:04.448Z,19.17
2022-12-23T17:39:31.051Z,18.73
2022-12-23T17:41:57.527Z,18.87
2022-12-23T17:44:24.165Z,19.77
2022-12-23T17:46:50.640Z,18.20
2022-12-23T17:49:17.173Z,19.97
2022-12-23T17:51:43.789Z,17.53
2022-12-23T17:54:23.369Z,17.20
2022-12-23T17:56:50.108Z,18.07
2022-12-23T17:59:16.628Z,18.27
2022-12-23T18:01:43.262Z,18.77
2022-12-23T18:04:09.798Z,18.00
2022-12-23T18:06:36.360Z,18.07
2022-12-23T18:09:02.845Z,19.03
2022-12-23T18:11:35.559Z,19.43
2022-12-23T18:14:02.197Z,19.97
2022-12-23T18:16:28.726Z,20.30
2022-12-23T18:18:55.279Z,19.37
2022-12-23T18:21:26.004Z,19.17
2022-12-23T18:23:52.847Z,19.90
2022-12-23T18:26:19.344Z,20.73
2022-12-23T18:28:45.891Z,21.17
2022-12-23T18:31:16.766Z,22.93
2022-12-23T18:33:43.357Z,22.87
2022-12-23T18:36:30.717Z,22.17
2022-12-23T18:38:57.446Z,22.87
2022-12-23T18:41:24.137Z,23.17
2022-12-23T18:43:50.841Z,22.30
2022-12-23T18:46:17.608Z,23.77
2022-12-23T18:48:44.185Z,21.50
2022-12-23T18:51:13.026Z,20.23
2022-12-23T18:53:39.669Z,20.87
2022-12-23T18:56:06.255Z,21.60
2022-12-23T18:58:32.903Z,22.10
2022-12-23T19:00:59.433Z,19.87
2022-12-23T19:03:26.893Z,20.33
2022-12-23T19:05:53.542Z,20.67
2022-12-23T19:08:26.227Z,19.70
2022-12-23T19:10:53.492Z,19.70
2022-12-23T19:13:20.087Z,22.20
2022-12-23T19:15:46.776Z,19.77
2022-12-23T19:18:17.137Z,19.67
2022-12-23T19:20:44.092Z,19.40
2022-12-23T19:23:10.789Z,17.50
2022-12-23T19:25:37.521Z,17.23
2022-12-23T19:28:04.069Z,18.73
2022-12-23T19:30:30.627Z,17.47
2022-12-23T19:32:57.125Z,17.63
2022-12-23T19:35:23.987Z,16.80
2022-12-23T19:37:50.564Z,17.17
2022-12-23T19:40:17.212Z,16.57
2022-12-23T19:42:43.811Z,16.17
2022-12-23T19:45:10.428Z,16.20
2022-12-23T19:47:37.229Z,15.47
2022-12-23T19:50:04.259Z,16.93
2022-12-23T19:52:30.787Z,18.03
2022-12-23T19:54:57.302Z,20.13
2022-12-23T19:57:24.191Z,20.63
2022-12-23T19:59:50.731Z,20.07
2022-12-23T20:02:17.605Z,18.47
2022-12-23T20:04:44.225Z,18.20
2022-12-23T20:07:10.727Z,19.37
2022-12-23T20:09:37.370Z,20.13
2022-12-23T20:12:04.019Z,20.30
2022-12-23T20:14:33.779Z,20.40
2022-12-23T20:17:00.878Z,19.90
2022-12-23T20:19:27.831Z,17.73
2022-12-23T20:21:54.358Z,17.43
2022-12-23T20:24:20.902Z,18.07
2022-12-23T20:26:47.737Z,16.80
2022-12-23T20:29:14.517Z,16.17
2022-12-23T20:31:41.761Z,16.33
2022-12-23T20:34:09.257Z,17.30
2022-12-23T20:36:35.906Z,16.70
2022-12-23T20:39:03.579Z,15.87
2022-12-23T20:41:31.347Z,16.27
2022-12-23T20:44:32.422Z,17.23
2022-12-23T20:46:44.600Z,16.43
2022-12-23T20:49:11.255Z,17.20
2022-12-23T20:51:37.902Z,16.93
2022-12-23T20:54:04.535Z,16.70
2022-12-23T20:56:31.895Z,17.07
2022-12-23T20:58:59.448Z,15.33
2022-12-23T21:01:29.323Z,13.63
2022-12-23T21:03:56.472Z,13.60
2022-12-23T21:06:23.217Z,13.53
2022-12-23T21:08:49.801Z,13.37
2022-12-23T21:11:16.477Z,14.23
2022-12-23T21:13:44.050Z,15.47
2022-12-23T21:16:11.146Z,14.57
2022-12-23T21:18:44.358Z,14.10
2022-12-23T21:21:11.081Z,13.13
2022-12-23T21:23:38.770Z,12.90
2022-12-23T21:26:06.692Z,14.43
2022-12-23T21:28:34.029Z,13.93
2022-12-23T21:31:00.564Z,13.40
2022-12-23T21:33:27.139Z,13.10
2022-12-23T21:35:54.252Z,13.33
2022-12-23T21:38:20.830Z,12.27
2022-12-23T21:40:47.610Z,13.37
2022-12-23T21:43:15.347Z,13.27
2022-12-23T21:45:41.867Z,12.03
2022-12-23T21:48:08.375Z,11.43
2022-12-23T21:50:34.924Z,10.20
2022-12-23T21:53:01.458Z,10.50
2022-12-23T21:55:28.018Z,10.27
2022-12-23T21:57:54.590Z,10.80
2022-12-23T22:00:21.127Z,10.63
2022-12-23T22:02:47.641Z,11.13
2022-12-23T22:05:14.222Z,11.20
2022-12-23T22:07:40.864Z,10.60
2022-12-23T22:10:07.776Z,10.80
2022-12-23T22:12:34.325Z,10.40
2022-12-23T22:15:03.849Z,11.03
2022-12-23T22:17:34.375Z,11.77
2022-12-23T22:20:00.896Z,11.57
2022-12-23T22:22:27.454Z,10.37
2022-12-23T22:24:54.329Z,10.27
2022-12-23T22:27:20.844Z,9.17
2022-12-23T22:29:47.383Z,9.73
2022-12-23T22:32:13.890Z,9.57
2022-12-23T22:34:40.629Z,9.23
2022-12-23T22:37:07.143Z,11.93
2022-12-23T22:39:33.657Z,10.77
2022-12-23T22:42:00.173Z,11.97
2022-12-23T22:44:26.705Z,11.70
2022-12-23T22:46:53.289Z,12.17
2022-12-23T22:49:19.990Z,12.43
2022-12-23T22:51:46.557Z,13.43
2022-12-23T22:54:13.114Z,12.40
2022-12-23T22:56:39.768Z,14.83
2022-12-23T22:59:06.340Z,12.63
2022-12-23T23:01:33.524Z,14.43
2022-12-23T23:04:00.401Z,15.37
2022-12-23T23:06:28.129Z,15.57
2022-12-23T23:08:54.792Z,14.20
2022-12-23T23:11:21.402Z,14.07
2022-12-23T23:13:47.915Z,14.70
2022-12-23T23:16:14.579Z,13.90
2022-12-23T23:18:41.282Z,14.50
2022-12-23T23:21:08.138Z,14.53
2022-12-23T23:23:34.724Z,15.13
2022-12-23T23:26:01.418Z,14.40
2022-12-23T23:28:27.957Z,13.80
2022-12-23T23:31:16.697Z,14.87
2022-12-23T23:33:40.968Z,15.03
2022-12-23T23:36:07.787Z,14.60
2022-12-23T23:38:35.337Z,14.33
2022-12-23T23:41:01.995Z,13.53
2022-12-23T23:43:28.496Z,12.57
2022-12-23T23:45:54.989Z,12.17
2022-12-23T23:48:21.565Z,13.23
2022-12-23T23:50:48.167Z,16.23
2022-12-23T23:53:15.127Z,14.90
2022-12-23T23:55:41.629Z,15.80
2022-12-23T23:58:08.242Z,15.73
